Time;durP1;ratioP1;P1;durP2;ratioP2;P2;SDS_P1;SDS_P2;PMS_P1;PMS_P2;Temp;Humidity;BMP_temperature;BMP_pressure;BME280_temperature;BME280_humidity;BME280_pressure;Samples;Min_cycle;Max_cycle;Signal;HPM_P1;HPM_P2
2022/11/08 00:02:07;;;;;;;6.15;3.00;;;;;;;6.29;100.00;97287.81;5069232;28;20127;-59
2022/11/08 00:04:34;;;;;;;6.15;3.20;;;;;;;6.31;100.00;97279.50;5066570;28;20328;-59
2022/11/08 00:15:15;;;;;;;6.85;2.92;;;;;;;6.26;100.00;97276.69;5068400;28;20059;-57
2022/11/08 00:17:42;;;;;;;6.65;2.80;;;;;;;6.22;100.00;97279.00;5067478;28;20068;-58
2022/11/08 00:20:09;;;;;;;7.53;2.40;;;;;;;6.24;100.00;97275.03;5068035;28;20491;-58
2022/11/08 00:22:35;;;;;;;6.68;3.00;;;;;;;6.17;100.00;97268.94;5062460;28;20558;-59
2022/11/08 00:25:02;;;;;;;5.63;2.90;;;;;;;6.15;100.00;97264.84;5066962;28;20074;-59
2022/11/08 00:27:29;;;;;;;5.93;2.75;;;;;;;6.13;100.00;97266.91;5067684;28;20089;-57
2022/11/08 00:29:55;;;;;;;4.40;2.40;;;;;;;6.08;100.00;97265.72;5066935;28;20044;-59
2022/11/08 00:32:24;;;;;;;6.93;3.03;;;;;;;5.98;100.00;97270.78;5066760;28;20072;-58
2022/11/08 00:34:51;;;;;;;5.97;2.70;;;;;;;5.95;100.00;97260.47;5067332;28;20131;-59
2022/11/08 00:37:19;;;;;;;7.70;3.03;;;;;;;5.94;100.00;97259.63;5052166;28;20083;-59
2022/11/08 00:39:46;;;;;;;8.73;2.83;;;;;;;5.91;100.00;97260.09;5046669;28;20072;-58
2022/11/08 00:42:13;;;;;;;6.72;3.10;;;;;;;5.91;100.00;97256.59;5061580;28;20543;-59
2022/11/08 00:44:39;;;;;;;5.07;2.75;;;;;;;5.91;100.00;97261.97;5067094;28;20068;-57
2022/11/08 00:47:07;;;;;;;4.63;2.65;;;;;;;5.92;100.00;97263.59;5067081;28;20107;-59
2022/11/08 00:49:34;;;;;;;8.98;3.30;;;;;;;5.92;100.00;97261.75;5067637;28;20495;-57
2022/11/08 00:52:00;;;;;;;6.82;2.92;;;;;;;5.88;100.00;97255.19;5066091;28;20046;-59
2022/11/08 00:54:27;;;;;;;4.60;2.60;;;;;;;5.90;100.00;97257.66;5066287;28;20119;-58
2022/11/08 00:56:53;;;;;;;6.65;3.00;;;;;;;5.89;100.00;97256.00;5066971;28;20485;-59
2022/11/08 00:59:20;;;;;;;7.15;2.80;;;;;;;5.78;100.00;97254.91;5066486;28;20067;-59
2022/11/08 01:01:46;;;;;;;6.63;2.75;;;;;;;5.70;100.00;97242.56;5065990;28;20642;-57
2022/11/08 01:04:16;;;;;;;6.07;3.03;;;;;;;5.67;100.00;97243.81;5066489;28;20354;-59
2022/11/08 01:06:43;;;;;;;6.07;2.55;;;;;;;5.65;100.00;97248.63;5057050;28;20095;-56
2022/11/08 01:09:09;;;;;;;4.80;2.78;;;;;;;5.60;100.00;97235.84;5049169;28;20116;-59
2022/11/08 01:11:37;;;;;;;6.88;3.28;;;;;;;5.48;100.00;97234.94;5054751;28;20516;-58
2022/11/08 01:14:04;;;;;;;5.72;2.60;;;;;;;5.36;100.00;97239.38;5066378;28;20710;-59
2022/11/08 01:16:32;;;;;;;8.50;3.20;;;;;;;5.27;100.00;97228.94;5066052;28;20056;-59
2022/11/08 01:19:00;;;;;;;7.78;3.20;;;;;;;5.27;100.00;97228.13;5066763;28;20116;-59
2022/11/08 01:21:27;;;;;;;7.47;3.00;;;;;;;5.20;100.00;97237.06;5066292;28;20105;-59
2022/11/08 01:23:54;;;;;;;5.78;3.20;;;;;;;5.16;100.00;97241.22;5066065;28;20507;-59
2022/11/08 01:26:23;;;;;;;6.47;3.05;;;;;;;5.12;100.00;97242.69;5066834;28;20147;-59
2022/11/08 01:28:50;;;;;;;4.88;2.63;;;;;;;5.04;100.00;97240.28;5065777;28;20093;-58
2022/11/08 01:31:20;;;;;;;7.05;3.28;;;;;;;4.92;100.00;97243.72;5065313;28;20454;-59
2022/11/08 01:33:47;;;;;;;7.68;3.35;;;;;;;4.88;100.00;97245.19;5065878;28;20123;-59
2022/11/08 01:36:19;;;;;;;9.90;3.38;;;;;;;4.97;100.00;97237.66;5065140;28;20068;-59
2022/11/08 01:38:46;;;;;;;6.90;3.10;;;;;;;4.90;100.00;97240.41;5066115;28;20079;-59
2022/11/08 01:41:15;;;;;;;7.13;3.95;;;;;;;4.92;100.00;97227.59;5065603;28;20063;-59
2022/11/08 01:43:46;;;;;;;7.03;3.67;;;;;;;4.93;100.00;97217.69;5066372;28;20133;-59
2022/11/08 01:46:18;;;;;;;8.82;3.65;;;;;;;4.93;100.00;97221.19;5065593;28;20565;-58
2022/11/08 01:48:57;;;;;;;6.63;3.28;;;;;;;5.02;100.00;97218.22;5067343;28;20040;-57
2022/11/08 01:51:29;;;;;;;7.35;3.63;;;;;;;5.03;100.00;97209.97;5065054;28;20040;-59
2022/11/08 01:53:58;;;;;;;7.00;4.05;;;;;;;5.07;100.00;97196.91;5065891;28;20055;-59
2022/11/08 01:56:26;;;;;;;6.32;3.40;;;;;;;5.01;100.00;97189.75;5065835;28;20064;-58
2022/11/08 01:58:55;;;;;;;7.30;3.33;;;;;;;4.99;100.00;97205.25;5066453;28;20121;-59
2022/11/08 02:01:21;;;;;;;5.65;3.50;;;;;;;5.00;100.00;97201.50;5065550;28;20119;-57
2022/11/08 02:03:48;;;;;;;6.05;3.08;;;;;;;4.92;100.00;97194.56;5066128;28;20052;-57
2022/11/08 02:06:15;;;;;;;8.20;3.40;;;;;;;4.91;100.00;97179.53;5063578;28;20123;-57
2022/11/08 02:08:43;;;;;;;6.80;3.42;;;;;;;4.79;100.00;97187.47;5066032;28;20468;-59
2022/11/08 02:11:13;;;;;;;7.20;3.85;;;;;;;4.79;100.00;97190.97;5047023;28;20095;-59
2022/11/08 02:13:40;;;;;;;6.07;3.58;;;;;;;4.74;100.00;97179.25;5066302;28;20036;-59
2022/11/08 02:16:14;;;;;;;7.35;4.03;;;;;;;4.76;100.00;97177.19;5065580;28;20523;-59
2022/11/08 02:18:44;;;;;;;6.40;3.58;;;;;;;4.89;100.00;97168.19;5067064;28;20036;-57
2022/11/08 02:21:34;;;;;;;5.38;3.17;;;;;;;5.00;100.00;97167.47;5061784;28;20049;-59
2022/11/08 02:24:07;;;;;;;8.43;3.90;;;;;;;5.07;100.00;97164.72;5066219;28;20500;-59
2022/11/08 02:26:35;;;;;;;6.28;3.58;;;;;;;5.13;100.00;97157.66;5065747;28;20521;-57
2022/11/08 02:29:21;;;;;;;6.32;3.10;;;;;;;5.20;100.00;97159.22;5066106;28;20552;-57
2022/11/08 02:31:48;;;;;;;7.55;3.70;;;;;;;5.22;100.00;97150.94;5050851;28;20116;-59
2022/11/08 02:34:14;;;;;;;5.90;3.08;;;;;;;5.19;100.00;97148.69;5066506;28;20373;-59
2022/11/08 02:36:45;;;;;;;7.97;3.50;;;;;;;5.22;100.00;97148.25;5061742;28;20123;-57
2022/11/08 02:39:11;;;;;;;7.32;3.25;;;;;;;5.19;100.00;97146.84;5065897;28;20587;-59
2022/11/08 02:41:38;;;;;;;5.63;3.40;;;;;;;5.23;100.00;97146.41;5065440;28;20068;-59
2022/11/08 02:44:04;;;;;;;6.28;3.50;;;;;;;5.20;100.00;97145.78;5065578;28;20064;-59
2022/11/08 02:46:31;;;;;;;7.22;3.67;;;;;;;5.24;100.00;97148.03;5065535;28;20137;-59
2022/11/08 02:48:58;;;;;;;8.02;3.35;;;;;;;5.08;100.00;97148.41;5065896;28;20072;-58
2022/11/08 02:51:24;;;;;;;7.10;3.70;;;;;;;4.95;100.00;97151.22;5064825;28;20119;-59
2022/11/08 02:53:51;;;;;;;6.72;3.35;;;;;;;4.85;100.00;97145.50;5057204;28;20086;-59
2022/11/08 02:56:17;;;;;;;8.82;3.55;;;;;;;4.81;100.00;97140.59;5054115;28;20123;-59
2022/11/08 02:58:43;;;;;;;7.90;3.15;;;;;;;4.68;100.00;97140.69;5065794;28;20527;-59
2022/11/08 03:01:10;;;;;;;6.05;3.30;;;;;;;4.67;100.00;97139.91;5064647;28;20123;-58
2022/11/08 03:03:36;;;;;;;9.40;3.58;;;;;;;4.63;100.00;97140.53;5066263;28;20036;-59
2022/11/08 03:06:03;;;;;;;7.70;3.95;;;;;;;4.55;100.00;97147.84;5065057;28;20503;-59
2022/11/08 03:08:29;;;;;;;5.57;3.05;;;;;;;4.61;100.00;97151.47;5067063;28;20087;-59
2022/11/08 03:10:58;;;;;;;6.03;3.45;;;;;;;4.50;100.00;97138.81;5068387;28;20068;-59
2022/11/08 03:13:25;;;;;;;6.10;3.45;;;;;;;4.33;100.00;97147.38;5068822;28;20314;-58
2022/11/08 03:15:51;;;;;;;7.10;3.60;;;;;;;4.37;100.00;97148.59;5069251;28;20105;-58
2022/11/08 03:18:18;;;;;;;5.57;3.25;;;;;;;4.41;100.00;97147.13;5068381;28;20036;-59
2022/11/08 03:20:45;;;;;;;6.47;3.20;;;;;;;4.44;100.00;97153.91;5068508;28;20098;-59
2022/11/08 03:23:11;;;;;;;5.82;3.58;;;;;;;4.58;100.00;97153.78;5068391;28;20048;-57
2022/11/08 03:25:38;;;;;;;10.52;3.67;;;;;;;4.70;100.00;97141.31;5067284;28;20124;-59
2022/11/08 03:28:07;;;;;;;7.30;3.85;;;;;;;4.79;100.00;97148.03;5068420;28;20040;-59
2022/11/08 03:30:35;;;;;;;6.65;3.25;;;;;;;5.04;100.00;97144.50;5067297;28;20040;-57
2022/11/08 03:33:02;;;;;;;9.52;3.08;;;;;;;5.18;100.00;97145.19;5068554;28;20398;-59
2022/11/08 03:35:28;;;;;;;6.30;3.60;;;;;;;5.16;100.00;97141.91;5068284;28;20064;-58
2022/11/08 03:37:56;;;;;;;5.55;3.70;;;;;;;5.18;100.00;97144.38;5059233;28;20076;-58
2022/11/08 03:40:23;;;;;;;5.85;3.35;;;;;;;5.12;100.00;97138.03;5066465;28;20063;-59
2022/11/08 03:42:50;;;;;;;7.47;3.25;;;;;;;5.09;100.00;97138.50;5065797;28;20040;-58
2022/11/08 03:45:16;;;;;;;5.22;3.08;;;;;;;5.23;100.00;97133.78;5068472;28;20087;-58
2022/11/08 03:47:45;;;;;;;6.65;3.15;;;;;;;5.36;100.00;97129.31;5067604;28;20123;-59
2022/11/08 03:50:13;;;;;;;6.35;2.90;;;;;;;5.55;100.00;97132.81;5068847;28;20503;-58
2022/11/08 03:52:43;;;;;;;5.88;2.95;;;;;;;5.56;100.00;97123.69;5067472;28;20075;-58
2022/11/08 03:55:11;;;;;;;7.38;3.13;;;;;;;5.52;100.00;97133.25;5067941;28;20416;-57
2022/11/08 03:57:38;;;;;;;8.70;2.90;;;;;;;5.42;100.00;97134.59;5067296;28;20063;-58
2022/11/08 04:00:07;;;;;;;6.22;3.50;;;;;;;5.40;100.00;97130.50;5067213;28;20135;-59
2022/11/08 04:02:38;;;;;;;8.20;2.88;;;;;;;5.31;100.00;97135.38;5064665;28;20044;-59
2022/11/08 04:05:06;;;;;;;8.48;3.25;;;;;;;5.23;100.00;97131.09;5067724;28;20048;-58
2022/11/08 04:07:33;;;;;;;5.45;3.20;;;;;;;5.17;100.00;97137.38;5058432;28;20036;-59
2022/11/08 04:09:59;;;;;;;7.53;3.28;;;;;;;5.20;100.00;97127.00;5067241;28;20116;-59
2022/11/08 04:15:16;;;;;;;6.53;3.25;;;;;;;5.19;100.00;97122.69;5066643;28;20131;-58
2022/11/08 04:23:17;;;;;;;6.50;3.08;;;;;;;5.14;100.00;97119.03;5067417;28;20049;-58
2022/11/08 04:25:44;;;;;;;5.97;3.50;;;;;;;5.12;100.00;97113.06;5065690;28;20079;-58
2022/11/08 04:28:10;;;;;;;7.30;3.60;;;;;;;5.07;100.00;97105.69;5073833;28;20143;-59
2022/11/08 04:30:37;;;;;;;5.50;3.10;;;;;;;5.05;100.00;97111.25;5066828;28;20332;-59
2022/11/08 04:33:04;;;;;;;7.53;3.42;;;;;;;5.11;100.00;97103.34;5066654;28;20106;-59
2022/11/08 04:35:30;;;;;;;7.32;3.55;;;;;;;5.09;100.00;97100.91;5067759;28;20483;-59
2022/11/08 04:38:01;;;;;;;8.57;4.20;;;;;;;5.06;100.00;97102.16;5055915;28;20119;-58
2022/11/08 04:40:29;;;;;;;11.00;4.40;;;;;;;5.03;100.00;97099.94;5066790;28;20115;-59
2022/11/08 04:42:56;;;;;;;9.60;4.70;;;;;;;5.03;100.00;97093.75;5066969;28;20044;-57
2022/11/08 04:45:22;;;;;;;6.05;3.38;;;;;;;5.03;100.00;97093.75;5066895;28;20511;-58
2022/11/08 04:47:49;;;;;;;9.25;3.40;;;;;;;5.04;100.00;97092.69;5065525;28;20131;-58
2022/11/08 04:50:15;;;;;;;9.50;3.85;;;;;;;5.03;100.00;97093.75;5066197;28;20044;-57
2022/11/08 04:52:42;;;;;;;8.02;3.67;;;;;;;4.99;100.00;97085.34;5066392;28;20458;-57
2022/11/08 04:55:08;;;;;;;7.35;3.42;;;;;;;4.95;100.00;97089.50;5066371;28;20579;-57
2022/11/08 04:57:35;;;;;;;6.57;2.83;;;;;;;4.97;100.00;97082.03;5067129;28;20090;-59
2022/11/08 05:00:02;;;;;;;7.03;3.53;;;;;;;4.95;100.00;97082.25;5066970;28;20116;-57
2022/11/08 05:02:29;;;;;;;6.90;3.72;;;;;;;4.94;100.00;97085.19;5065421;28;20056;-58
2022/11/08 05:04:56;;;;;;;7.38;2.97;;;;;;;4.96;100.00;97088.44;5066624;28;20076;-59
2022/11/08 05:07:23;;;;;;;8.65;3.75;;;;;;;5.00;100.00;97086.97;5053626;28;20044;-59
2022/11/08 05:09:49;;;;;;;10.20;3.65;;;;;;;5.00;100.00;97072.72;5066410;28;20068;-59
2022/11/08 05:12:16;;;;;;;8.25;4.03;;;;;;;4.97;100.00;97073.19;5064386;28;20071;-58
2022/11/08 05:14:42;;;;;;;4.72;3.22;;;;;;;5.03;100.00;97072.28;5066636;28;20653;-59
2022/11/08 05:17:09;;;;;;;10.60;4.25;;;;;;;5.07;100.00;97068.09;5066132;28;20044;-59
2022/11/08 05:25:06;;;;;;;7.20;3.67;;;;;;;5.12;100.00;97070.13;5055453;28;20045;-59
2022/11/08 05:27:33;;;;;;;7.72;3.20;;;;;;;5.15;100.00;97070.50;5048659;28;20041;-58
2022/11/08 05:30:00;;;;;;;6.60;3.42;;;;;;;5.16;100.00;97079.38;5066105;28;20044;-59
2022/11/08 05:32:26;;;;;;;5.35;2.80;;;;;;;5.02;100.00;97074.13;5065475;28;20140;-58
2022/11/08 05:34:53;;;;;;;5.70;3.30;;;;;;;5.08;100.00;97073.25;5066224;28;20115;-57
2022/11/08 05:37:19;;;;;;;5.32;3.28;;;;;;;5.08;100.00;97067.88;5066126;28;20064;-58
2022/11/08 05:39:46;;;;;;;7.22;2.88;;;;;;;5.11;100.00;97071.97;5046296;28;20064;-58
2022/11/08 05:42:12;;;;;;;6.63;3.35;;;;;;;5.11;100.00;97065.78;5045350;28;20061;-59
2022/11/08 05:44:39;;;;;;;5.10;3.17;;;;;;;5.08;100.00;97067.88;5065130;28;20093;-59
2022/11/08 05:47:05;;;;;;;6.30;2.90;;;;;;;5.09;100.00;97063.34;5065854;28;20119;-58
2022/11/08 05:49:31;;;;;;;7.10;3.55;;;;;;;5.13;100.00;97061.84;5067068;28;20044;-58
2022/11/08 05:51:58;;;;;;;7.05;3.40;;;;;;;5.16;100.00;97058.69;5055424;28;20064;-58
2022/11/08 05:54:25;;;;;;;8.20;3.55;;;;;;;5.10;100.00;97050.72;5054136;28;20078;-59
2022/11/08 05:56:51;;;;;;;7.35;3.90;;;;;;;5.08;100.00;97062.50;5056081;28;20071;-58
2022/11/08 05:59:18;;;;;;;6.93;3.47;;;;;;;5.06;100.00;97059.22;5056333;28;20515;-58
2022/11/08 06:01:44;;;;;;;6.43;2.92;;;;;;;5.06;100.00;97059.22;5054982;28;20681;-59
2022/11/08 06:04:11;;;;;;;7.28;3.35;;;;;;;5.00;100.00;97054.75;5057097;28;20052;-58
2022/11/08 06:06:38;;;;;;;7.28;3.30;;;;;;;4.99;100.00;97049.63;5053681;28;20524;-57
2022/11/08 06:09:04;;;;;;;6.57;3.22;;;;;;;4.92;100.00;97055.88;5055288;28;20159;-57
2022/11/08 06:11:31;;;;;;;9.27;3.17;;;;;;;4.92;100.00;97052.38;5054243;28;20492;-59
2022/11/08 06:13:57;;;;;;;7.47;3.00;;;;;;;4.85;100.00;97063.19;5062199;28;20257;-57
2022/11/08 06:16:25;;;;;;;5.68;3.00;;;;;;;4.84;100.00;97066.06;5065597;28;20064;-57
2022/11/08 06:18:51;;;;;;;6.75;3.60;;;;;;;4.84;100.00;97063.41;5065557;28;20123;-58
2022/11/08 06:21:19;;;;;;;5.70;3.05;;;;;;;4.83;100.00;97067.94;5072151;28;20047;-56
2022/11/08 06:23:46;;;;;;;7.68;3.78;;;;;;;4.79;100.00;97062.19;5059814;28;20132;-57
2022/11/08 06:26:13;;;;;;;6.57;3.15;;;;;;;4.83;100.00;97065.25;5067679;28;20128;-58
2022/11/08 06:28:39;;;;;;;5.50;2.90;;;;;;;4.78;100.00;97057.88;5067042;28;20471;-58
2022/11/08 06:31:06;;;;;;;6.53;3.20;;;;;;;4.73;100.00;97065.78;5063191;28;20111;-58
2022/11/08 06:33:32;;;;;;;8.75;3.20;;;;;;;4.62;100.00;97053.94;5060801;28;20827;-58
2022/11/08 06:36:00;;;;;;;7.13;3.60;;;;;;;4.61;100.00;97052.25;5068162;28;20154;-59
2022/11/08 06:38:27;;;;;;;10.60;3.38;;;;;;;4.59;100.00;97043.63;5071773;28;20045;-58
2022/11/08 06:40:53;;;;;;;10.48;3.38;;;;;;;4.69;100.00;97049.28;5080168;28;20045;-59
2022/11/08 06:43:20;;;;;;;7.22;3.28;;;;;;;4.67;100.00;97045.19;5074981;28;20554;-58
2022/11/08 06:45:47;;;;;;;6.18;2.85;;;;;;;4.79;100.00;97056.03;5066554;28;20123;-59
2022/11/08 06:48:14;;;;;;;5.90;2.63;;;;;;;5.00;100.00;97057.44;5067458;28;20102;-59
2022/11/08 06:50:42;;;;;;;7.57;3.00;;;;;;;5.19;100.00;97052.88;5066300;28;20040;-59
2022/11/08 06:53:11;;;;;;;5.55;3.00;;;;;;;5.24;100.00;97057.59;5059749;28;20048;-56
2022/11/08 06:55:38;;;;;;;5.35;2.90;;;;;;;5.32;100.00;97049.22;5063799;28;20147;-59
2022/11/08 06:58:05;;;;;;;5.43;2.50;;;;;;;5.54;100.00;97054.13;5059423;28;20076;-58
2022/11/08 07:00:31;;;;;;;5.07;2.28;;;;;;;5.68;100.00;97064.69;5063581;28;20132;-59
2022/11/08 07:03:00;;;;;;;3.50;2.15;;;;;;;5.90;100.00;97069.53;5048565;28;20663;-59
2022/11/08 07:05:28;;;;;;;5.22;2.85;;;;;;;6.00;100.00;97072.47;5069075;28;20661;-59
2022/11/08 07:07:59;;;;;;;5.30;2.20;;;;;;;5.86;100.00;97069.97;5068281;28;20582;-59
2022/11/08 07:10:28;;;;;;;6.78;2.38;;;;;;;5.84;100.00;97072.09;5062661;28;20119;-59
2022/11/08 07:13:04;;;;;;;4.90;2.45;;;;;;;5.80;100.00;97073.59;5066715;28;20048;-58
2022/11/08 07:15:33;;;;;;;7.55;2.53;;;;;;;5.88;100.00;97074.31;5065558;28;20124;-58
2022/11/08 07:18:10;;;;;;;4.35;2.42;;;;;;;5.88;100.00;97063.56;5080190;28;20086;-58
2022/11/08 07:20:38;;;;;;;4.55;2.15;;;;;;;5.95;100.00;97061.59;5065827;28;20102;-58
2022/11/08 07:23:05;;;;;;;5.03;2.42;;;;;;;5.98;100.00;97059.25;5084800;28;20040;-58
2022/11/08 07:25:33;;;;;;;5.10;2.28;;;;;;;6.02;100.00;97058.81;5060729;28;20134;-58
2022/11/08 07:28:02;;;;;;;4.53;1.90;;;;;;;6.15;100.00;97058.63;5078503;28;20044;-59
2022/11/08 07:30:29;;;;;;;6.03;2.45;;;;;;;6.32;99.62;97052.56;5065906;28;20045;-59
2022/11/08 07:32:57;;;;;;;4.00;2.03;;;;;;;6.54;98.58;97049.31;5051827;28;20041;-58
2022/11/08 07:35:26;;;;;;;4.53;2.38;;;;;;;6.67;97.70;97050.97;5067867;28;20105;-58
2022/11/08 07:37:53;;;;;;;4.18;1.80;;;;;;;6.82;96.38;97048.59;5073721;28;20692;-59
2022/11/08 07:40:20;;;;;;;4.47;2.05;;;;;;;6.95;96.70;97031.38;5068729;28;20063;-58
2022/11/08 07:42:47;;;;;;;3.08;1.60;;;;;;;7.08;95.61;97024.91;5084593;28;20713;-59
2022/11/08 07:45:34;;;;;;;4.07;1.65;;;;;;;7.24;94.22;97020.69;5059040;28;20566;-58
2022/11/08 07:48:02;;;;;;;4.18;1.60;;;;;;;7.55;92.28;97023.13;5085697;28;20870;-59
2022/11/08 07:50:38;;;;;;;5.72;1.65;;;;;;;7.80;91.86;97019.25;5074132;28;20673;-57
2022/11/08 07:53:04;;;;;;;3.70;1.60;;;;;;;7.96;90.44;97023.03;5084094;28;20537;-58
2022/11/08 07:55:31;;;;;;;4.55;1.67;;;;;;;8.01;89.77;97019.63;5065920;28;20044;-59
2022/11/08 07:58:01;;;;;;;4.30;1.85;;;;;;;8.08;89.45;97017.59;5068392;28;20119;-58
2022/11/08 08:00:29;;;;;;;4.63;1.50;;;;;;;8.16;88.45;97027.13;5075290;28;20113;-57
2022/11/08 08:02:57;;;;;;;6.25;1.92;;;;;;;8.26;87.86;97021.09;5052359;28;20055;-59
2022/11/08 08:05:25;;;;;;;5.07;1.80;;;;;;;8.35;86.87;97025.00;5063771;28;20064;-59
2022/11/08 08:07:54;;;;;;;4.38;1.80;;;;;;;8.41;86.20;97024.00;5067571;28;20111;-59
2022/11/08 08:10:21;;;;;;;4.97;1.70;;;;;;;8.55;86.32;97021.03;5067261;28;20072;-58
2022/11/08 08:12:47;;;;;;;2.42;1.35;;;;;;;8.75;85.61;97027.78;5065832;28;20135;-61
2022/11/08 08:15:14;;;;;;;2.28;1.30;;;;;;;9.06;84.18;97033.56;5066961;28;20048;-58
2022/11/08 08:17:40;;;;;;;3.35;1.52;;;;;;;9.31;83.53;97029.56;5071574;28;20670;-59
2022/11/08 08:20:07;;;;;;;3.88;1.55;;;;;;;9.57;81.37;97025.28;5071056;28;20732;-56
2022/11/08 08:22:34;;;;;;;2.90;1.30;;;;;;;9.69;80.74;97044.03;5057177;28;20106;-59
2022/11/08 08:25:00;;;;;;;3.85;1.50;;;;;;;9.68;80.91;97036.19;5056252;28;20056;-57
2022/11/08 08:27:28;;;;;;;4.18;1.50;;;;;;;9.75;79.95;97037.63;5073350;28;20051;-60
2022/11/08 08:29:55;;;;;;;3.83;1.40;;;;;;;9.76;79.58;97033.03;5069281;28;20121;-58
2022/11/08 08:32:21;;;;;;;4.60;1.10;;;;;;;9.80;79.34;97027.94;5070847;28;20127;-58
2022/11/08 08:34:48;;;;;;;3.65;1.55;;;;;;;9.81;79.88;97040.38;5073442;28;20078;-58
2022/11/08 08:37:16;;;;;;;4.53;1.20;;;;;;;9.83;79.47;97028.22;5070797;28;20409;-56
2022/11/08 08:39:42;;;;;;;2.65;1.20;;;;;;;9.84;78.96;97035.25;5063545;28;20124;-56
2022/11/08 08:42:09;;;;;;;2.33;1.13;;;;;;;9.84;80.51;97042.56;5067380;28;20495;-57
2022/11/08 08:44:35;;;;;;;3.63;1.30;;;;;;;9.82;80.26;97040.13;5072172;28;20090;-56
2022/11/08 08:47:02;;;;;;;4.15;1.63;;;;;;;9.85;79.50;97049.63;5067246;28;20111;-55
2022/11/08 08:49:28;;;;;;;4.05;1.45;;;;;;;9.88;78.96;97049.91;5067351;28;20135;-55
2022/11/08 08:51:55;;;;;;;4.22;1.58;;;;;;;9.93;79.55;97049.16;5065913;28;20132;-56
2022/11/08 08:54:21;;;;;;;3.03;1.30;;;;;;;9.92;78.45;97047.53;5066563;28;20415;-54
2022/11/08 08:56:54;;;;;;;2.70;1.20;;;;;;;9.96;78.78;97051.34;5064017;28;20131;-56
2022/11/08 08:59:21;;;;;;;3.90;1.38;;;;;;;10.04;78.51;97050.06;5077215;28;20053;-55
2022/11/08 09:02:09;;;;;;;3.13;1.33;;;;;;;10.17;78.37;97046.09;5060350;28;20036;-52
2022/11/08 09:04:37;;;;;;;4.38;1.50;;;;;;;10.22;77.54;97048.88;5064575;28;20054;-57
2022/11/08 09:07:05;;;;;;;3.00;1.40;;;;;;;10.21;78.13;97047.22;5073652;28;20131;-58
2022/11/08 09:09:33;;;;;;;2.70;1.30;;;;;;;10.26;77.61;97050.00;5074611;28;20071;-58
2022/11/08 09:11:59;;;;;;;3.20;1.20;;;;;;;10.32;77.01;97052.75;5074274;28;20067;-56
2022/11/08 09:14:26;;;;;;;2.72;1.15;;;;;;;10.35;77.06;97057.63;5072888;28;20043;-56
2022/11/08 09:16:52;;;;;;;7.18;1.60;;;;;;;10.38;77.11;97059.81;5074563;28;20839;-56
2022/11/08 09:19:19;;;;;;;1.95;1.00;;;;;;;10.49;76.51;97064.28;5064855;28;20123;-56
2022/11/08 09:21:45;;;;;;;2.63;1.10;;;;;;;10.57;76.96;97070.28;5063914;28;20042;-55
2022/11/08 09:24:11;;;;;;;3.55;1.40;;;;;;;10.61;77.14;97071.41;5062858;28;20044;-56
2022/11/08 09:26:38;;;;;;;2.45;0.95;;;;;;;10.60;75.86;97075.16;5068333;28;20075;-57
2022/11/08 09:29:04;;;;;;;2.78;1.10;;;;;;;10.59;76.04;97085.19;5068955;28;20097;-53
2022/11/08 09:31:31;;;;;;;2.15;1.15;;;;;;;10.52;76.72;97079.19;5074736;28;20127;-57
2022/11/08 09:33:57;;;;;;;3.38;1.35;;;;;;;10.53;77.28;97083.50;5083707;28;20600;-56
2022/11/08 09:36:24;;;;;;;4.00;1.30;;;;;;;10.55;77.05;97078.66;5064347;28;20415;-55
2022/11/08 09:38:50;;;;;;;2.38;1.25;;;;;;;10.58;78.58;97080.03;5061559;28;20044;-55
2022/11/08 09:41:44;;;;;;;2.88;1.13;;;;;;;10.63;78.20;97077.38;5075263;28;20040;-57
2022/11/08 09:44:29;;;;;;;3.10;1.00;;;;;;;10.68;76.15;97087.44;5069638;28;20104;-57
2022/11/08 09:47:01;;;;;;;2.17;1.00;;;;;;;10.74;75.36;97087.19;5068643;28;20051;-57
2022/11/08 09:49:36;;;;;;;2.63;1.30;;;;;;;10.77;74.30;97080.44;5075361;28;20046;-56
2022/11/08 09:52:04;;;;;;;3.08;1.20;;;;;;;10.83;74.08;97084.00;5063943;28;20072;-60
2022/11/08 09:54:41;;;;;;;2.97;1.13;;;;;;;10.91;74.24;97078.09;5063884;28;20488;-60
2022/11/08 09:57:28;;;;;;;2.58;1.02;;;;;;;10.96;74.43;97080.84;5052494;28;20051;-59
2022/11/08 10:00:13;;;;;;;4.30;1.30;;;;;;;11.08;74.31;97077.09;5063866;28;20037;-57
2022/11/08 10:02:39;;;;;;;3.53;1.17;;;;;;;11.15;73.43;97075.81;5055979;28;20041;-54
2022/11/08 10:05:14;;;;;;;2.78;1.30;;;;;;;11.20;73.18;97069.56;5057496;28;20044;-56
2022/11/08 10:08:10;;;;;;;4.13;1.23;;;;;;;11.31;73.39;97071.25;5072773;28;20582;-56
2022/11/08 10:10:58;;;;;;;5.63;1.40;;;;;;;11.46;72.48;97077.81;5071292;28;20120;-57
2022/11/08 10:13:27;;;;;;;5.22;1.02;;;;;;;11.53;70.73;97075.69;5070006;28;20076;-58
2022/11/08 10:16:03;;;;;;;3.03;1.10;;;;;;;11.63;71.32;97058.63;5068453;28;20144;-60
2022/11/08 10:18:48;;;;;;;2.47;1.20;;;;;;;11.80;70.58;97057.59;5068359;28;20059;-59
2022/11/08 10:21:17;;;;;;;2.75;1.10;;;;;;;11.92;67.84;97050.03;5064927;28;20755;-59
2022/11/08 10:23:52;;;;;;;2.53;1.13;;;;;;;11.99;67.19;97038.91;5061369;28;20507;-60
2022/11/08 10:26:22;;;;;;;1.70;0.93;;;;;;;12.07;68.06;97048.44;5071960;28;20124;-59
2022/11/08 10:29:01;;;;;;;6.70;2.15;;;;;;;12.20;66.94;97041.69;5078985;28;20123;-59
2022/11/08 10:31:33;;;;;;;3.42;1.40;;;;;;;12.12;65.94;97042.22;5070461;28;20119;-58
2022/11/08 10:34:08;;;;;;;3.53;1.25;;;;;;;12.26;65.00;97040.59;5062923;28;20053;-59
2022/11/08 10:36:40;;;;;;;3.75;1.20;;;;;;;12.33;65.43;97045.75;5073433;28;20117;-59
2022/11/08 10:39:10;;;;;;;2.40;1.17;;;;;;;12.30;65.84;97041.69;5074430;28;20087;-58
2022/11/08 10:41:39;;;;;;;3.75;1.20;;;;;;;12.29;65.86;97044.66;5066245;28;20073;-59
2022/11/08 10:44:12;;;;;;;2.13;1.20;;;;;;;12.27;65.52;97042.22;5066742;28;20360;-59
2022/11/08 10:46:42;;;;;;;3.05;1.17;;;;;;;12.27;65.35;97050.34;5068422;28;20076;-59
2022/11/08 10:49:22;;;;;;;4.00;1.15;;;;;;;12.33;65.04;97041.16;5068866;28;20619;-59
2022/11/08 10:51:53;;;;;;;3.05;1.25;;;;;;;12.43;66.35;97034.91;5054723;28;20068;-59
2022/11/08 10:54:54;;;;;;;3.92;0.90;;;;;;;12.61;65.47;97038.94;5059316;28;20712;-59
2022/11/08 10:57:36;;;;;;;1.83;1.00;;;;;;;12.70;65.05;97022.09;5072757;28;20052;-59
2022/11/08 11:00:15;;;;;;;3.55;1.17;;;;;;;12.82;65.62;97021.78;5054629;28;20109;-59
2022/11/08 11:02:42;;;;;;;3.75;1.20;;;;;;;12.90;65.46;97020.44;5058775;28;20737;-60
2022/11/08 11:05:32;;;;;;;2.33;0.93;;;;;;;12.96;63.14;97014.69;5057562;28;20049;-59
2022/11/08 11:08:08;;;;;;;3.00;1.35;;;;;;;13.07;63.48;97007.34;5059913;28;20047;-60
2022/11/08 11:10:34;;;;;;;2.10;0.90;;;;;;;13.29;63.81;97008.88;5057347;28;20041;-59
2022/11/08 11:13:12;;;;;;;2.40;1.00;;;;;;;13.56;61.58;97006.88;5066741;28;20060;-58
2022/11/08 11:16:12;;;;;;;2.58;1.00;;;;;;;13.93;58.99;97004.75;5059447;28;20053;-58
2022/11/08 11:18:48;;;;;;;2.85;1.10;;;;;;;14.04;58.74;97000.84;5064990;28;20060;-57
2022/11/08 11:21:22;;;;;;;2.83;1.00;;;;;;;14.13;56.61;96998.34;5065948;28;20102;-57
2022/11/08 11:24:06;;;;;;;3.75;0.88;;;;;;;14.12;57.86;96997.50;5065590;28;20139;-57
2022/11/08 11:26:46;;;;;;;4.22;1.00;;;;;;;14.13;56.60;96993.72;5061944;28;20045;-57
2022/11/08 11:29:21;;;;;;;2.08;1.10;;;;;;;14.13;56.38;96993.72;5066878;28;20115;-60
2022/11/08 11:31:50;;;;;;;2.22;0.98;;;;;;;14.15;56.24;96993.41;5064185;28;20124;-58
2022/11/08 11:34:16;;;;;;;3.13;0.98;;;;;;;14.14;57.29;96997.22;5075515;28;20131;-58
2022/11/08 11:37:09;;;;;;;2.92;0.98;;;;;;;14.17;56.99;96988.50;5069280;28;20044;-57
2022/11/08 11:39:48;;;;;;;2.63;0.90;;;;;;;14.21;57.80;96989.56;5074246;28;20040;-58
2022/11/08 11:42:40;;;;;;;1.80;0.90;;;;;;;14.29;57.60;96982.69;5066440;28;20064;-58
2022/11/08 11:45:39;;;;;;;3.15;1.17;;;;;;;14.46;56.65;96986.88;5065847;28;20041;-57
2022/11/08 11:48:26;;;;;;;3.33;0.90;;;;;;;14.44;56.27;96988.00;5054704;28;20771;-58
2022/11/08 11:50:53;;;;;;;3.50;1.00;;;;;;;14.47;57.19;96986.59;5054513;28;20096;-58
2022/11/08 11:53:24;;;;;;;2.03;0.80;;;;;;;14.44;57.31;96993.44;5058754;28;20035;-57
2022/11/08 11:56:02;;;;;;;3.83;1.20;;;;;;;14.46;57.97;96985.00;5066836;28;20819;-57
2022/11/08 11:58:42;;;;;;;3.55;1.08;;;;;;;14.53;58.58;96987.38;5062098;28;20070;-58
2022/11/08 12:01:43;;;;;;;4.00;0.90;;;;;;;14.52;58.52;96988.47;5063897;28;20040;-58
2022/11/08 12:04:31;;;;;;;3.83;1.17;;;;;;;14.62;58.29;96979.38;5046735;28;20052;-58
2022/11/08 12:07:36;;;;;;;3.05;0.98;;;;;;;14.65;58.75;96976.91;5065660;28;20488;-58
2022/11/08 12:10:24;;;;;;;2.75;1.25;;;;;;;14.74;58.59;96970.81;5069246;28;20611;-57